sensor_id;sensor_type;location;lat;lon;timestamp;temperature;humidity
16964;DHT22;8598;50.508;10.436;2022-12-29T00:01:37;7.10;99.90
16964;DHT22;8598;50.508;10.436;2022-12-29T00:04:05;7.10;99.90
16964;DHT22;8598;50.508;10.436;2022-12-29T00:06:32;7.10;99.90
16964;DHT22;8598;50.508;10.436;2022-12-29T00:08:59;7.10;99.90
16964;DHT22;8598;50.508;10.436;2022-12-29T00:11:27;7.10;99.90
16964;DHT22;8598;50.508;10.436;2022-12-29T00:13:54;7.20;99.90
16964;DHT22;8598;50.508;10.436;2022-12-29T00:16:41;7.20;99.90
16964;DHT22;8598;50.508;10.436;2022-12-29T00:19:08;7.20;99.90
16964;DHT22;8598;50.508;10.436;2022-12-29T00:21:55;7.20;99.90
16964;DHT22;8598;50.508;10.436;2022-12-29T00:24:39;7.30;99.90
16964;DHT22;8598;50.508;10.436;2022-12-29T00:27:26;7.10;99.90
16964;DHT22;8598;50.508;10.436;2022-12-29T00:30:11;7.20;99.90
16964;DHT22;8598;50.508;10.436;2022-12-29T00:32:56;7.10;99.90
16964;DHT22;8598;50.508;10.436;2022-12-29T00:35:45;7.10;99.90
16964;DHT22;8598;50.508;10.436;2022-12-29T00:38:12;7.10;99.90
16964;DHT22;8598;50.508;10.436;2022-12-29T00:40:56;7.20;99.90
16964;DHT22;8598;50.508;10.436;2022-12-29T00:43:42;7.30;99.90
16964;DHT22;8598;50.508;10.436;2022-12-29T00:46:26;7.30;99.90
16964;DHT22;8598;50.508;10.436;2022-12-29T00:48:53;7.30;99.90
16964;DHT22;8598;50.508;10.436;2022-12-29T00:51:37;7.30;99.90
16964;DHT22;8598;50.508;10.436;2022-12-29T00:54:04;7.40;99.90
16964;DHT22;8598;50.508;10.436;2022-12-29T00:56:30;7.40;99.90
16964;DHT22;8598;50.508;10.436;2022-12-29T00:59:01;7.40;99.90
16964;DHT22;8598;50.508;10.436;2022-12-29T01:01:28;7.50;99.90
16964;DHT22;8598;50.508;10.436;2022-12-29T01:03:55;7.40;99.90
16964;DHT22;8598;50.508;10.436;2022-12-29T01:06:22;7.40;99.90
16964;DHT22;8598;50.508;10.436;2022-12-29T01:08:50;7.40;99.90
16964;DHT22;8598;50.508;10.436;2022-12-29T01:11:37;7.50;99.90
16964;DHT22;8598;50.508;10.436;2022-12-29T01:14:05;7.50;99.90
16964;DHT22;8598;50.508;10.436;2022-12-29T01:16:32;7.40;99.90
16964;DHT22;8598;50.508;10.436;2022-12-29T01:18:59;7.40;99.90
16964;DHT22;8598;50.508;10.436;2022-12-29T01:21:26;7.50;99.90
16964;DHT22;8598;50.508;10.436;2022-12-29T01:23:52;7.50;99.90
16964;DHT22;8598;50.508;10.436;2022-12-29T01:26:19;7.50;99.90
16964;DHT22;8598;50.508;10.436;2022-12-29T01:28:46;7.50;99.90
16964;DHT22;8598;50.508;10.436;2022-12-29T01:31:15;7.50;99.90
16964;DHT22;8598;50.508;10.436;2022-12-29T01:33:43;7.50;99.90
16964;DHT22;8598;50.508;10.436;2022-12-29T01:36:11;7.60;99.90
16964;DHT22;8598;50.508;10.436;2022-12-29T01:38:38;7.60;99.90
16964;DHT22;8598;50.508;10.436;2022-12-29T01:41:07;7.50;99.90
16964;DHT22;8598;50.508;10.436;2022-12-29T01:43:42;7.50;99.90
16964;DHT22;8598;50.508;10.436;2022-12-29T01:46:18;7.40;99.90
16964;DHT22;8598;50.508;10.436;2022-12-29T01:48:48;7.40;99.90
16964;DHT22;8598;50.508;10.436;2022-12-29T01:51:16;7.40;99.90
16964;DHT22;8598;50.508;10.436;2022-12-29T01:53:43;7.30;99.90
16964;DHT22;8598;50.508;10.436;2022-12-29T01:56:13;7.30;99.90
16964;DHT22;8598;50.508;10.436;2022-12-29T01:58:45;7.20;99.90
16964;DHT22;8598;50.508;10.436;2022-12-29T02:01:14;7.20;99.90
16964;DHT22;8598;50.508;10.436;2022-12-29T02:03:43;7.20;99.90
16964;DHT22;8598;50.508;10.436;2022-12-29T02:06:13;7.20;99.90
16964;DHT22;8598;50.508;10.436;2022-12-29T02:08:41;7.20;99.90
16964;DHT22;8598;50.508;10.436;2022-12-29T02:11:09;7.20;99.90
16964;DHT22;8598;50.508;10.436;2022-12-29T02:13:36;7.20;99.90
16964;DHT22;8598;50.508;10.436;2022-12-29T02:16:10;7.20;99.90
16964;DHT22;8598;50.508;10.436;2022-12-29T02:18:48;7.20;99.90
16964;DHT22;8598;50.508;10.436;2022-12-29T02:21:45;7.20;99.90
16964;DHT22;8598;50.508;10.436;2022-12-29T02:24:30;7.20;99.90
16964;DHT22;8598;50.508;10.436;2022-12-29T02:27:31;7.20;99.90
16964;DHT22;8598;50.508;10.436;2022-12-29T02:30:15;7.20;99.90
16964;DHT22;8598;50.508;10.436;2022-12-29T02:32:52;7.30;99.90
16964;DHT22;8598;50.508;10.436;2022-12-29T02:35:27;7.30;99.90
16964;DHT22;8598;50.508;10.436;2022-12-29T02:38:00;7.30;99.90
16964;DHT22;8598;50.508;10.436;2022-12-29T02:40:37;7.30;99.90
16964;DHT22;8598;50.508;10.436;2022-12-29T02:43:13;7.30;99.90
16964;DHT22;8598;50.508;10.436;2022-12-29T02:45:47;7.30;99.90
16964;DHT22;8598;50.508;10.436;2022-12-29T02:48:22;7.40;99.90
16964;DHT22;8598;50.508;10.436;2022-12-29T02:50:53;7.30;99.90
16964;DHT22;8598;50.508;10.436;2022-12-29T02:53:23;7.40;99.90
16964;DHT22;8598;50.508;10.436;2022-12-29T02:56:05;7.40;99.90
16964;DHT22;8598;50.508;10.436;2022-12-29T02:58:32;7.40;99.90
16964;DHT22;8598;50.508;10.436;2022-12-29T03:01:10;7.50;99.90
16964;DHT22;8598;50.508;10.436;2022-12-29T03:03:48;7.40;99.90
16964;DHT22;8598;50.508;10.436;2022-12-29T03:06:29;7.50;99.90
16964;DHT22;8598;50.508;10.436;2022-12-29T03:09:05;7.50;99.90
16964;DHT22;8598;50.508;10.436;2022-12-29T03:11:41;7.50;99.90
16964;DHT22;8598;50.508;10.436;2022-12-29T03:14:34;7.50;99.90
16964;DHT22;8598;50.508;10.436;2022-12-29T03:17:25;7.50;99.90
16964;DHT22;8598;50.508;10.436;2022-12-29T03:19:59;7.50;99.90
16964;DHT22;8598;50.508;10.436;2022-12-29T03:22:30;7.50;99.90
16964;DHT22;8598;50.508;10.436;2022-12-29T03:25:01;7.60;99.90
16964;DHT22;8598;50.508;10.436;2022-12-29T03:27:30;7.60;99.90
16964;DHT22;8598;50.508;10.436;2022-12-29T03:30:01;7.60;99.90
16964;DHT22;8598;50.508;10.436;2022-12-29T03:32:32;7.60;99.90
16964;DHT22;8598;50.508;10.436;2022-12-29T03:35:02;7.60;99.90
16964;DHT22;8598;50.508;10.436;2022-12-29T03:37:41;7.60;99.90
16964;DHT22;8598;50.508;10.436;2022-12-29T03:40:09;7.60;99.90
16964;DHT22;8598;50.508;10.436;2022-12-29T03:42:38;7.50;99.90
16964;DHT22;8598;50.508;10.436;2022-12-29T03:45:07;7.50;99.90
16964;DHT22;8598;50.508;10.436;2022-12-29T03:47:34;7.50;99.90
16964;DHT22;8598;50.508;10.436;2022-12-29T03:50:02;7.50;99.90
16964;DHT22;8598;50.508;10.436;2022-12-29T03:52:29;7.50;99.90
16964;DHT22;8598;50.508;10.436;2022-12-29T03:54:56;7.50;99.90
16964;DHT22;8598;50.508;10.436;2022-12-29T03:57:22;7.60;99.90
16964;DHT22;8598;50.508;10.436;2022-12-29T03:59:49;7.60;99.90
16964;DHT22;8598;50.508;10.436;2022-12-29T04:02:15;7.60;99.90
16964;DHT22;8598;50.508;10.436;2022-12-29T04:04:42;7.70;99.90
16964;DHT22;8598;50.508;10.436;2022-12-29T04:07:10;7.70;99.90
16964;DHT22;8598;50.508;10.436;2022-12-29T04:09:37;7.70;99.90
16964;DHT22;8598;50.508;10.436;2022-12-29T04:12:04;7.70;99.90
16964;DHT22;8598;50.508;10.436;2022-12-29T04:14:30;7.70;99.90
16964;DHT22;8598;50.508;10.436;2022-12-29T04:16:57;7.70;99.90
16964;DHT22;8598;50.508;10.436;2022-12-29T04:19:24;7.80;99.90
16964;DHT22;8598;50.508;10.436;2022-12-29T04:21:50;7.80;99.90
16964;DHT22;8598;50.508;10.436;2022-12-29T04:24:18;7.80;99.90
16964;DHT22;8598;50.508;10.436;2022-12-29T04:26:45;7.80;99.90
16964;DHT22;8598;50.508;10.436;2022-12-29T04:29:12;7.80;99.90
16964;DHT22;8598;50.508;10.436;2022-12-29T04:31:38;7.80;99.90
16964;DHT22;8598;50.508;10.436;2022-12-29T04:34:05;7.90;99.90
16964;DHT22;8598;50.508;10.436;2022-12-29T04:36:31;7.90;99.90
16964;DHT22;8598;50.508;10.436;2022-12-29T04:38:58;7.90;99.90
16964;DHT22;8598;50.508;10.436;2022-12-29T04:41:27;8.00;99.90
16964;DHT22;8598;50.508;10.436;2022-12-29T04:43:54;8.00;99.90
16964;DHT22;8598;50.508;10.436;2022-12-29T04:46:20;8.10;99.90
16964;DHT22;8598;50.508;10.436;2022-12-29T04:48:47;8.10;99.90
16964;DHT22;8598;50.508;10.436;2022-12-29T04:51:13;8.10;99.90
16964;DHT22;8598;50.508;10.436;2022-12-29T04:53:40;8.10;99.90
16964;DHT22;8598;50.508;10.436;2022-12-29T04:56:07;8.10;99.90
16964;DHT22;8598;50.508;10.436;2022-12-29T04:58:35;8.10;99.90
16964;DHT22;8598;50.508;10.436;2022-12-29T05:01:02;8.20;99.90
16964;DHT22;8598;50.508;10.436;2022-12-29T05:03:29;8.20;99.90
16964;DHT22;8598;50.508;10.436;2022-12-29T05:05:56;8.20;99.90
16964;DHT22;8598;50.508;10.436;2022-12-29T05:08:23;8.30;99.90
16964;DHT22;8598;50.508;10.436;2022-12-29T05:10:50;8.30;99.90
16964;DHT22;8598;50.508;10.436;2022-12-29T05:13:17;8.30;99.90
16964;DHT22;8598;50.508;10.436;2022-12-29T05:15:49;8.30;99.90
16964;DHT22;8598;50.508;10.436;2022-12-29T05:18:15;8.30;99.90
16964;DHT22;8598;50.508;10.436;2022-12-29T05:20:42;8.30;99.90
16964;DHT22;8598;50.508;10.436;2022-12-29T05:23:09;8.40;99.90
16964;DHT22;8598;50.508;10.436;2022-12-29T05:25:36;8.30;99.90
16964;DHT22;8598;50.508;10.436;2022-12-29T05:28:03;8.40;99.90
16964;DHT22;8598;50.508;10.436;2022-12-29T05:30:29;8.30;99.90
16964;DHT22;8598;50.508;10.436;2022-12-29T05:32:57;8.30;99.90
16964;DHT22;8598;50.508;10.436;2022-12-29T05:35:24;8.20;99.90
16964;DHT22;8598;50.508;10.436;2022-12-29T05:37:50;8.20;99.90
16964;DHT22;8598;50.508;10.436;2022-12-29T05:40:17;8.10;99.90
16964;DHT22;8598;50.508;10.436;2022-12-29T05:42:44;8.10;99.90
16964;DHT22;8598;50.508;10.436;2022-12-29T05:45:10;8.10;99.90
16964;DHT22;8598;50.508;10.436;2022-12-29T05:47:37;8.20;99.90
16964;DHT22;8598;50.508;10.436;2022-12-29T05:50:05;8.20;99.90
16964;DHT22;8598;50.508;10.436;2022-12-29T05:52:32;8.30;99.90
16964;DHT22;8598;50.508;10.436;2022-12-29T05:54:59;8.30;99.90
16964;DHT22;8598;50.508;10.436;2022-12-29T05:57:25;8.40;99.90
16964;DHT22;8598;50.508;10.436;2022-12-29T05:59:52;8.40;99.90
16964;DHT22;8598;50.508;10.436;2022-12-29T06:02:19;8.40;99.90
16964;DHT22;8598;50.508;10.436;2022-12-29T06:04:45;8.40;99.90
16964;DHT22;8598;50.508;10.436;2022-12-29T06:07:13;8.40;99.90
16964;DHT22;8598;50.508;10.436;2022-12-29T06:09:40;8.50;99.90
16964;DHT22;8598;50.508;10.436;2022-12-29T06:12:07;8.40;99.90
16964;DHT22;8598;50.508;10.436;2022-12-29T06:14:33;8.40;99.90
16964;DHT22;8598;50.508;10.436;2022-12-29T06:17:00;8.40;99.90
16964;DHT22;8598;50.508;10.436;2022-12-29T06:19:27;8.40;99.90
16964;DHT22;8598;50.508;10.436;2022-12-29T06:21:53;8.50;99.90
16964;DHT22;8598;50.508;10.436;2022-12-29T06:24:21;8.50;99.90
16964;DHT22;8598;50.508;10.436;2022-12-29T06:26:48;8.50;99.90
16964;DHT22;8598;50.508;10.436;2022-12-29T06:29:15;8.50;99.90
16964;DHT22;8598;50.508;10.436;2022-12-29T06:31:42;8.50;99.90
16964;DHT22;8598;50.508;10.436;2022-12-29T06:34:10;8.50;99.90
16964;DHT22;8598;50.508;10.436;2022-12-29T06:36:37;8.60;99.90
16964;DHT22;8598;50.508;10.436;2022-12-29T06:39:04;8.60;99.90
16964;DHT22;8598;50.508;10.436;2022-12-29T06:41:32;8.70;99.90
16964;DHT22;8598;50.508;10.436;2022-12-29T06:43:58;8.70;99.90
16964;DHT22;8598;50.508;10.436;2022-12-29T06:46:25;8.70;99.90
16964;DHT22;8598;50.508;10.436;2022-12-29T06:48:51;8.70;99.90
16964;DHT22;8598;50.508;10.436;2022-12-29T06:51:18;8.70;99.90
16964;DHT22;8598;50.508;10.436;2022-12-29T06:53:45;8.70;99.90
16964;DHT22;8598;50.508;10.436;2022-12-29T06:56:11;8.70;99.90
16964;DHT22;8598;50.508;10.436;2022-12-29T06:58:39;8.80;99.90
16964;DHT22;8598;50.508;10.436;2022-12-29T07:01:06;8.70;99.90
16964;DHT22;8598;50.508;10.436;2022-12-29T07:03:32;8.70;99.90
16964;DHT22;8598;50.508;10.436;2022-12-29T07:05:59;8.70;99.90
16964;DHT22;8598;50.508;10.436;2022-12-29T07:08:26;8.60;99.90
16964;DHT22;8598;50.508;10.436;2022-12-29T07:10:52;8.60;99.90
16964;DHT22;8598;50.508;10.436;2022-12-29T07:13:19;8.60;99.90
16964;DHT22;8598;50.508;10.436;2022-12-29T07:15:47;8.60;99.90
16964;DHT22;8598;50.508;10.436;2022-12-29T07:18:13;8.60;99.90
16964;DHT22;8598;50.508;10.436;2022-12-29T07:20:40;8.60;99.90
16964;DHT22;8598;50.508;10.436;2022-12-29T07:23:07;8.60;99.90
16964;DHT22;8598;50.508;10.436;2022-12-29T07:25:34;8.70;99.90
16964;DHT22;8598;50.508;10.436;2022-12-29T07:28:01;8.70;99.90
16964;DHT22;8598;50.508;10.436;2022-12-29T07:30:28;8.70;99.90
16964;DHT22;8598;50.508;10.436;2022-12-29T07:32:56;8.70;99.90
16964;DHT22;8598;50.508;10.436;2022-12-29T07:35:23;8.70;99.90
16964;DHT22;8598;50.508;10.436;2022-12-29T07:37:50;8.70;99.90
16964;DHT22;8598;50.508;10.436;2022-12-29T07:40:16;8.70;99.90
16964;DHT22;8598;50.508;10.436;2022-12-29T07:42:43;8.80;99.90
16964;DHT22;8598;50.508;10.436;2022-12-29T07:45:10;8.80;99.90
16964;DHT22;8598;50.508;10.436;2022-12-29T07:47:36;8.80;99.90
16964;DHT22;8598;50.508;10.436;2022-12-29T07:50:06;8.80;99.90
16964;DHT22;8598;50.508;10.436;2022-12-29T07:52:32;8.80;99.90
16964;DHT22;8598;50.508;10.436;2022-12-29T07:54:59;8.90;99.90
16964;DHT22;8598;50.508;10.436;2022-12-29T07:57:25;8.90;99.90
16964;DHT22;8598;50.508;10.436;2022-12-29T07:59:52;8.90;99.90
16964;DHT22;8598;50.508;10.436;2022-12-29T08:02:19;8.90;99.90
16964;DHT22;8598;50.508;10.436;2022-12-29T08:04:45;9.00;99.90
16964;DHT22;8598;50.508;10.436;2022-12-29T08:07:13;9.00;99.90
16964;DHT22;8598;50.508;10.436;2022-12-29T08:09:40;9.00;99.90
16964;DHT22;8598;50.508;10.436;2022-12-29T08:12:09;9.10;99.90
16964;DHT22;8598;50.508;10.436;2022-12-29T08:14:35;9.10;99.90
16964;DHT22;8598;50.508;10.436;2022-12-29T08:17:02;9.20;99.90
16964;DHT22;8598;50.508;10.436;2022-12-29T08:19:29;9.20;99.90
16964;DHT22;8598;50.508;10.436;2022-12-29T08:21:55;9.20;99.90
16964;DHT22;8598;50.508;10.436;2022-12-29T08:24:23;9.20;99.90
16964;DHT22;8598;50.508;10.436;2022-12-29T08:26:50;9.20;99.90
16964;DHT22;8598;50.508;10.436;2022-12-29T08:29:17;9.20;99.90
16964;DHT22;8598;50.508;10.436;2022-12-29T08:31:43;9.20;99.90
16964;DHT22;8598;50.508;10.436;2022-12-29T08:34:10;9.20;99.90
16964;DHT22;8598;50.508;10.436;2022-12-29T08:36:37;9.30;99.90
16964;DHT22;8598;50.508;10.436;2022-12-29T08:39:04;9.30;99.90
16964;DHT22;8598;50.508;10.436;2022-12-29T08:41:32;9.40;99.90
16964;DHT22;8598;50.508;10.436;2022-12-29T08:43:58;9.40;99.90
16964;DHT22;8598;50.508;10.436;2022-12-29T08:46:25;9.50;99.90
16964;DHT22;8598;50.508;10.436;2022-12-29T08:48:53;9.40;99.90
16964;DHT22;8598;50.508;10.436;2022-12-29T08:51:20;9.50;99.90
16964;DHT22;8598;50.508;10.436;2022-12-29T08:53:46;9.50;99.90
16964;DHT22;8598;50.508;10.436;2022-12-29T08:56:13;9.50;99.90
16964;DHT22;8598;50.508;10.436;2022-12-29T08:58:41;9.60;99.90
16964;DHT22;8598;50.508;10.436;2022-12-29T09:01:09;9.50;99.90
16964;DHT22;8598;50.508;10.436;2022-12-29T09:03:36;9.50;99.90
16964;DHT22;8598;50.508;10.436;2022-12-29T09:06:03;9.40;99.90
16964;DHT22;8598;50.508;10.436;2022-12-29T09:08:29;9.40;99.90
16964;DHT22;8598;50.508;10.436;2022-12-29T09:11:05;9.40;99.90
16964;DHT22;8598;50.508;10.436;2022-12-29T09:13:32;9.30;99.90
16964;DHT22;8598;50.508;10.436;2022-12-29T09:16:00;9.30;99.90
16964;DHT22;8598;50.508;10.436;2022-12-29T09:18:27;9.30;99.90
16964;DHT22;8598;50.508;10.436;2022-12-29T09:20:56;9.30;99.90
16964;DHT22;8598;50.508;10.436;2022-12-29T09:23:24;9.30;99.90
16964;DHT22;8598;50.508;10.436;2022-12-29T09:25:51;9.40;99.90
16964;DHT22;8598;50.508;10.436;2022-12-29T09:28:17;9.40;99.90
16964;DHT22;8598;50.508;10.436;2022-12-29T09:30:44;9.40;99.90
16964;DHT22;8598;50.508;10.436;2022-12-29T09:33:12;9.40;99.90
16964;DHT22;8598;50.508;10.436;2022-12-29T09:35:41;9.40;99.90
16964;DHT22;8598;50.508;10.436;2022-12-29T09:38:08;9.50;99.90
16964;DHT22;8598;50.508;10.436;2022-12-29T09:40:35;9.50;99.90
16964;DHT22;8598;50.508;10.436;2022-12-29T09:43:12;9.50;99.90
16964;DHT22;8598;50.508;10.436;2022-12-29T09:45:45;9.50;99.90
16964;DHT22;8598;50.508;10.436;2022-12-29T09:48:19;9.50;99.90
16964;DHT22;8598;50.508;10.436;2022-12-29T09:50:49;9.60;99.90
16964;DHT22;8598;50.508;10.436;2022-12-29T09:53:21;9.60;99.90
16964;DHT22;8598;50.508;10.436;2022-12-29T09:55:54;9.60;99.90
16964;DHT22;8598;50.508;10.436;2022-12-29T09:58:24;9.70;99.90
16964;DHT22;8598;50.508;10.436;2022-12-29T10:00:56;9.70;99.90
16964;DHT22;8598;50.508;10.436;2022-12-29T10:03:32;9.80;99.90
16964;DHT22;8598;50.508;10.436;2022-12-29T10:06:09;9.80;99.90
16964;DHT22;8598;50.508;10.436;2022-12-29T10:08:40;9.80;99.90
16964;DHT22;8598;50.508;10.436;2022-12-29T10:11:20;9.80;99.90
16964;DHT22;8598;50.508;10.436;2022-12-29T10:14:04;9.90;99.90
16964;DHT22;8598;50.508;10.436;2022-12-29T10:16:43;9.90;99.90
16964;DHT22;8598;50.508;10.436;2022-12-29T10:19:30;9.90;99.90
16964;DHT22;8598;50.508;10.436;2022-12-29T10:22:08;9.90;99.90
16964;DHT22;8598;50.508;10.436;2022-12-29T10:24:38;9.90;99.90
16964;DHT22;8598;50.508;10.436;2022-12-29T10:27:09;9.90;99.90
16964;DHT22;8598;50.508;10.436;2022-12-29T10:29:39;9.90;99.90
16964;DHT22;8598;50.508;10.436;2022-12-29T10:32:17;10.00;99.90
16964;DHT22;8598;50.508;10.436;2022-12-29T10:34:50;9.90;99.90
16964;DHT22;8598;50.508;10.436;2022-12-29T10:37:24;10.00;99.90
16964;DHT22;8598;50.508;10.436;2022-12-29T10:39:55;10.00;99.90
16964;DHT22;8598;50.508;10.436;2022-12-29T10:42:26;10.00;99.90
16964;DHT22;8598;50.508;10.436;2022-12-29T10:44:53;10.00;99.90
16964;DHT22;8598;50.508;10.436;2022-12-29T10:47:24;9.90;99.90
16964;DHT22;8598;50.508;10.436;2022-12-29T10:49:53;9.90;99.90
16964;DHT22;8598;50.508;10.436;2022-12-29T10:52:21;9.80;99.90
16964;DHT22;8598;50.508;10.436;2022-12-29T10:54:52;9.80;99.90
16964;DHT22;8598;50.508;10.436;2022-12-29T10:57:26;9.80;99.90
16964;DHT22;8598;50.508;10.436;2022-12-29T10:59:53;9.80;99.90
16964;DHT22;8598;50.508;10.436;2022-12-29T11:02:43;9.80;99.90
16964;DHT22;8598;50.508;10.436;2022-12-29T11:05:21;9.80;99.90
16964;DHT22;8598;50.508;10.436;2022-12-29T11:07:50;9.80;99.90
16964;DHT22;8598;50.508;10.436;2022-12-29T11:10:20;9.90;99.90
16964;DHT22;8598;50.508;10.436;2022-12-29T11:12:58;10.00;99.90
16964;DHT22;8598;50.508;10.436;2022-12-29T11:15:26;9.90;99.90
16964;DHT22;8598;50.508;10.436;2022-12-29T11:17:56;9.90;99.90
16964;DHT22;8598;50.508;10.436;2022-12-29T11:20:31;9.80;99.90
16964;DHT22;8598;50.508;10.436;2022-12-29T11:22:59;9.70;99.90
16964;DHT22;8598;50.508;10.436;2022-12-29T11:25:26;9.60;99.90
16964;DHT22;8598;50.508;10.436;2022-12-29T11:27:56;9.50;99.90
16964;DHT22;8598;50.508;10.436;2022-12-29T11:30:24;9.50;99.90
16964;DHT22;8598;50.508;10.436;2022-12-29T11:32:52;9.40;99.90
16964;DHT22;8598;50.508;10.436;2022-12-29T11:35:33;9.40;99.90
16964;DHT22;8598;50.508;10.436;2022-12-29T11:38:00;9.30;99.90
16964;DHT22;8598;50.508;10.436;2022-12-29T11:40:28;9.30;99.90
16964;DHT22;8598;50.508;10.436;2022-12-29T11:42:57;9.30;99.90
16964;DHT22;8598;50.508;10.436;2022-12-29T11:45:26;9.30;99.90
16964;DHT22;8598;50.508;10.436;2022-12-29T11:47:56;9.30;99.90
16964;DHT22;8598;50.508;10.436;2022-12-29T11:50:25;9.30;99.90
16964;DHT22;8598;50.508;10.436;2022-12-29T11:52:59;9.30;99.90
16964;DHT22;8598;50.508;10.436;2022-12-29T11:55:27;9.30;99.90
16964;DHT22;8598;50.508;10.436;2022-12-29T11:57:58;9.30;99.90
16964;DHT22;8598;50.508;10.436;2022-12-29T12:00:28;9.30;99.90
16964;DHT22;8598;50.508;10.436;2022-12-29T12:02:58;9.30;99.90
16964;DHT22;8598;50.508;10.436;2022-12-29T12:05:31;9.30;99.90
16964;DHT22;8598;50.508;10.436;2022-12-29T12:08:05;9.30;99.90
16964;DHT22;8598;50.508;10.436;2022-12-29T12:10:38;9.30;99.90
16964;DHT22;8598;50.508;10.436;2022-12-29T12:13:18;9.40;99.90
16964;DHT22;8598;50.508;10.436;2022-12-29T12:15:50;9.50;99.90
16964;DHT22;8598;50.508;10.436;2022-12-29T12:18:24;9.50;99.90
16964;DHT22;8598;50.508;10.436;2022-12-29T12:20:56;9.40;99.90
16964;DHT22;8598;50.508;10.436;2022-12-29T12:23:36;9.40;99.90
16964;DHT22;8598;50.508;10.436;2022-12-29T12:26:11;9.50;99.90
16964;DHT22;8598;50.508;10.436;2022-12-29T12:28:45;9.50;99.90
16964;DHT22;8598;50.508;10.436;2022-12-29T12:31:19;9.50;99.90
16964;DHT22;8598;50.508;10.436;2022-12-29T12:33:52;9.50;99.90
16964;DHT22;8598;50.508;10.436;2022-12-29T12:36:29;9.50;99.90
16964;DHT22;8598;50.508;10.436;2022-12-29T12:39:02;9.40;99.90
16964;DHT22;8598;50.508;10.436;2022-12-29T12:41:38;9.50;99.90
16964;DHT22;8598;50.508;10.436;2022-12-29T12:44:12;9.50;99.90
16964;DHT22;8598;50.508;10.436;2022-12-29T12:46:57;9.50;99.90
16964;DHT22;8598;50.508;10.436;2022-12-29T12:49:47;9.50;99.90
16964;DHT22;8598;50.508;10.436;2022-12-29T12:52:26;9.40;99.90
16964;DHT22;8598;50.508;10.436;2022-12-29T12:55:26;9.40;99.90
16964;DHT22;8598;50.508;10.436;2022-12-29T12:58:00;9.40;99.90
16964;DHT22;8598;50.508;10.436;2022-12-29T13:00:34;9.40;99.90
16964;DHT22;8598;50.508;10.436;2022-12-29T13:03:12;9.40;99.90
16964;DHT22;8598;50.508;10.436;2022-12-29T13:05:55;9.40;99.90
16964;DHT22;8598;50.508;10.436;2022-12-29T13:08:44;9.30;99.90
16964;DHT22;8598;50.508;10.436;2022-12-29T13:11:21;9.30;99.90
16964;DHT22;8598;50.508;10.436;2022-12-29T13:14:01;9.30;99.90
16964;DHT22;8598;50.508;10.436;2022-12-29T13:16:37;9.30;99.90
16964;DHT22;8598;50.508;10.436;2022-12-29T13:19:10;9.30;99.90
16964;DHT22;8598;50.508;10.436;2022-12-29T13:21:51;9.20;99.90
16964;DHT22;8598;50.508;10.436;2022-12-29T13:24:26;9.10;99.90
16964;DHT22;8598;50.508;10.436;2022-12-29T13:27:02;9.10;99.90
16964;DHT22;8598;50.508;10.436;2022-12-29T13:29:34;9.00;99.90
16964;DHT22;8598;50.508;10.436;2022-12-29T13:32:18;8.90;99.90
16964;DHT22;8598;50.508;10.436;2022-12-29T13:34:54;8.90;99.90
16964;DHT22;8598;50.508;10.436;2022-12-29T13:37:26;8.90;99.90
16964;DHT22;8598;50.508;10.436;2022-12-29T13:39:57;8.80;99.90
16964;DHT22;8598;50.508;10.436;2022-12-29T13:42:27;8.80;99.90
16964;DHT22;8598;50.508;10.436;2022-12-29T13:44:58;8.80;99.90
16964;DHT22;8598;50.508;10.436;2022-12-29T13:47:28;8.80;99.90
16964;DHT22;8598;50.508;10.436;2022-12-29T13:49:57;8.80;99.90
16964;DHT22;8598;50.508;10.436;2022-12-29T13:52:31;8.80;99.90
16964;DHT22;8598;50.508;10.436;2022-12-29T13:55:06;8.90;99.90
16964;DHT22;8598;50.508;10.436;2022-12-29T13:57:41;8.90;99.90
16964;DHT22;8598;50.508;10.436;2022-12-29T14:00:14;8.90;99.90
16964;DHT22;8598;50.508;10.436;2022-12-29T14:02:53;8.90;99.90
16964;DHT22;8598;50.508;10.436;2022-12-29T14:05:30;8.90;99.90
16964;DHT22;8598;50.508;10.436;2022-12-29T14:07:59;8.80;99.90
16964;DHT22;8598;50.508;10.436;2022-12-29T14:10:29;8.70;99.90
16964;DHT22;8598;50.508;10.436;2022-12-29T14:13:03;8.60;99.90
16964;DHT22;8598;50.508;10.436;2022-12-29T14:15:31;8.60;99.90
16964;DHT22;8598;50.508;10.436;2022-12-29T14:18:19;8.70;99.90
16964;DHT22;8598;50.508;10.436;2022-12-29T14:20:52;8.80;99.90
16964;DHT22;8598;50.508;10.436;2022-12-29T14:23:28;8.60;99.90
16964;DHT22;8598;50.508;10.436;2022-12-29T14:26:09;8.60;99.90
16964;DHT22;8598;50.508;10.436;2022-12-29T14:28:39;8.50;99.90
16964;DHT22;8598;50.508;10.436;2022-12-29T14:31:33;8.40;99.90
16964;DHT22;8598;50.508;10.436;2022-12-29T14:34:30;8.30;99.90
16964;DHT22;8598;50.508;10.436;2022-12-29T14:37:03;8.30;99.90
16964;DHT22;8598;50.508;10.436;2022-12-29T14:39:37;8.30;99.90
16964;DHT22;8598;50.508;10.436;2022-12-29T14:42:06;8.40;99.90
16964;DHT22;8598;50.508;10.436;2022-12-29T14:44:46;8.50;99.90
16964;DHT22;8598;50.508;10.436;2022-12-29T14:47:19;8.60;99.90
16964;DHT22;8598;50.508;10.436;2022-12-29T14:49:46;8.70;99.90
16964;DHT22;8598;50.508;10.436;2022-12-29T14:52:17;8.70;99.90
16964;DHT22;8598;50.508;10.436;2022-12-29T14:54:49;8.70;99.90
16964;DHT22;8598;50.508;10.436;2022-12-29T14:57:25;8.80;99.90
16964;DHT22;8598;50.508;10.436;2022-12-29T14:59:58;8.80;99.90
16964;DHT22;8598;50.508;10.436;2022-12-29T15:02:32;8.80;99.90
16964;DHT22;8598;50.508;10.436;2022-12-29T15:05:00;8.80;99.90
16964;DHT22;8598;50.508;10.436;2022-12-29T15:07:31;8.80;99.90
16964;DHT22;8598;50.508;10.436;2022-12-29T15:10:05;8.80;99.90
16964;DHT22;8598;50.508;10.436;2022-12-29T15:12:37;8.90;99.90
16964;DHT22;8598;50.508;10.436;2022-12-29T15:15:18;8.80;99.90
16964;DHT22;8598;50.508;10.436;2022-12-29T15:17:45;8.80;99.90
16964;DHT22;8598;50.508;10.436;2022-12-29T15:20:22;8.70;99.90
16964;DHT22;8598;50.508;10.436;2022-12-29T15:22:53;8.70;99.90
16964;DHT22;8598;50.508;10.436;2022-12-29T15:25:20;8.80;99.90
16964;DHT22;8598;50.508;10.436;2022-12-29T15:27:49;8.80;99.90
16964;DHT22;8598;50.508;10.436;2022-12-29T15:30:18;8.90;99.90
16964;DHT22;8598;50.508;10.436;2022-12-29T15:32:46;8.80;99.90
16964;DHT22;8598;50.508;10.436;2022-12-29T15:35:29;8.70;99.90
16964;DHT22;8598;50.508;10.436;2022-12-29T15:37:56;8.60;99.90
16964;DHT22;8598;50.508;10.436;2022-12-29T15:40:25;8.60;99.90
16964;DHT22;8598;50.508;10.436;2022-12-29T15:43:13;8.60;99.90
16964;DHT22;8598;50.508;10.436;2022-12-29T15:45:45;8.60;99.90
16964;DHT22;8598;50.508;10.436;2022-12-29T15:48:16;8.50;99.90
16964;DHT22;8598;50.508;10.436;2022-12-29T15:50:44;8.40;99.90
16964;DHT22;8598;50.508;10.436;2022-12-29T15:53:12;8.40;99.90
16964;DHT22;8598;50.508;10.436;2022-12-29T15:55:44;8.40;99.90
16964;DHT22;8598;50.508;10.436;2022-12-29T15:58:19;8.40;99.90
16964;DHT22;8598;50.508;10.436;2022-12-29T16:00:50;8.20;99.90
16964;DHT22;8598;50.508;10.436;2022-12-29T16:03:18;8.20;99.90
16964;DHT22;8598;50.508;10.436;2022-12-29T16:05:52;8.10;99.90
16964;DHT22;8598;50.508;10.436;2022-12-29T16:08:33;8.00;99.90
16964;DHT22;8598;50.508;10.436;2022-12-29T16:11:04;7.90;99.90